Time;durP1;ratioP1;P1;durP2;ratioP2;P2;SDS_P1;SDS_P2;PMS_P1;PMS_P2;Temp;Humidity;BMP_temperature;BMP_pressure;BME280_temperature;BME280_humidity;BME280_pressure;Samples;Min_cycle;Max_cycle;Signal;HPM_P1;HPM_P2
2022/03/25 00:01:52;;;;;;;;;61.25;46.25;;;;;12.49;39.87;102482.59;5077879;28;45405;-68
2022/03/25 00:04:18;;;;;;;;;50.75;42.00;;;;;12.44;39.74;102483.97;5074517;27;45625;-66
2022/03/25 00:06:43;;;;;;;;;60.00;43.25;;;;;12.31;40.23;102473.13;5062192;28;48067;-66
2022/03/25 00:09:08;;;;;;;;;47.50;39.00;;;;;12.27;40.53;102481.69;5067396;28;45436;-66
2022/03/25 00:11:34;;;;;;;;;60.25;45.75;;;;;12.12;39.96;102472.81;5068026;28;45283;-66
2022/03/25 00:14:00;;;;;;;;;60.50;45.50;;;;;12.14;40.16;102481.72;5064451;28;45520;-67
2022/03/25 00:16:26;;;;;;;;;55.50;42.75;;;;;12.15;39.25;102488.03;5062151;28;46111;-66
2022/03/25 00:18:51;;;;;;;;;61.50;47.00;;;;;12.20;39.31;102477.69;5065989;28;45209;-66
2022/03/25 00:21:16;;;;;;;;;55.00;44.75;;;;;12.26;38.96;102475.34;5071721;28;45225;-65
2022/03/25 00:23:42;;;;;;;;;59.00;45.00;;;;;12.25;39.54;102479.06;5065541;28;45242;-65
2022/03/25 00:26:07;;;;;;;;;51.75;39.25;;;;;12.25;39.77;102479.06;5070950;28;47168;-66
2022/03/25 00:28:33;;;;;;;;;54.50;44.50;;;;;12.19;39.81;102476.81;5072039;27;45578;-65
2022/03/25 00:30:58;;;;;;;;;60.25;43.25;;;;;12.10;40.83;102477.50;5065496;28;45319;-66
2022/03/25 00:33:24;;;;;;;;;58.00;44.50;;;;;12.10;39.84;102480.22;5080697;28;45512;-66
2022/03/25 00:35:49;;;;;;;;;67.50;50.50;;;;;12.08;40.93;102476.72;5062310;28;46440;-66
2022/03/25 00:38:14;;;;;;;;;48.00;35.75;;;;;12.01;40.96;102480.91;5071258;28;45612;-66
2022/03/25 00:40:40;;;;;;;;;62.75;45.50;;;;;11.95;41.37;102471.34;5063072;28;45772;-66
2022/03/25 00:43:09;;;;;;;;;56.75;43.75;;;;;11.88;41.44;102480.09;5072150;28;45309;-66
2022/03/25 00:45:35;;;;;;;;;58.50;46.50;;;;;11.79;40.80;102478.06;5066378;28;45675;-65
2022/03/25 00:48:00;;;;;;;;;60.00;47.00;;;;;11.84;40.70;102479.44;5071901;28;45333;-65
2022/03/25 00:50:26;;;;;;;;;60.50;47.25;;;;;11.89;40.19;102480.00;5068779;28;45281;-65
2022/03/25 00:52:53;;;;;;;;;60.75;46.50;;;;;11.92;40.77;102476.16;5082439;27;45218;-65
2022/03/25 00:55:19;;;;;;;;;56.50;45.50;;;;;11.83;40.77;102472.28;5066244;28;45757;-66
2022/03/25 00:57:45;;;;;;;;;60.75;45.50;;;;;11.87;39.78;102478.34;5070089;28;45570;-66
2022/03/25 01:00:10;;;;;;;;;59.25;45.25;;;;;11.95;39.81;102470.47;5076323;28;45457;-66
2022/03/25 01:02:36;;;;;;;;;68.25;48.00;;;;;11.90;40.37;102467.25;5062821;28;45228;-66
2022/03/25 01:05:02;;;;;;;;;62.25;47.50;;;;;11.95;40.24;102474.06;5070690;28;47931;-66
2022/03/25 01:07:27;;;;;;;;;62.25;48.50;;;;;11.93;41.25;102467.00;5082356;28;45303;-65
2022/03/25 01:09:52;;;;;;;;;62.75;46.75;;;;;11.89;40.45;102465.50;5072915;28;45337;-66
2022/03/25 01:12:21;;;;;;;;;61.50;46.75;;;;;11.92;39.77;102470.69;5068819;28;45530;-65
2022/03/25 01:14:47;;;;;;;;;61.75;48.75;;;;;11.91;41.42;102477.13;5071722;28;46440;-66
2022/03/25 01:17:12;;;;;;;;;61.75;48.00;;;;;11.83;41.37;102471.41;5064546;28;45270;-66
2022/03/25 01:19:38;;;;;;;;;59.75;44.00;;;;;11.74;40.79;102462.06;5076783;28;45376;-65
2022/03/25 01:22:04;;;;;;;;;55.75;43.75;;;;;11.74;40.53;102461.16;5068390;28;45540;-66
2022/03/25 01:24:30;;;;;;;;;64.25;45.25;;;;;11.78;40.58;102466.28;5072735;28;45368;-65
2022/03/25 01:26:56;;;;;;;;;57.75;44.00;;;;;11.77;40.51;102455.50;5068697;27;45311;-65
2022/03/25 01:29:21;;;;;;;;;58.25;45.25;;;;;11.77;40.52;102450.94;5079140;27;45486;-66
2022/03/25 01:31:48;;;;;;;;;58.25;44.75;;;;;11.74;41.14;102456.63;5070272;28;45306;-66
2022/03/25 01:34:15;;;;;;;;;63.00;45.75;;;;;11.74;40.76;102455.72;5075126;28;47452;-66
2022/03/25 01:36:40;;;;;;;;;58.00;45.25;;;;;11.66;41.09;102448.13;5069618;28;45608;-66
2022/03/25 01:39:06;;;;;;;;;57.50;46.25;;;;;11.70;40.64;102455.06;5067402;28;45266;-66
2022/03/25 01:41:32;;;;;;;;;59.25;46.00;;;;;11.64;41.17;102444.63;5065734;28;45317;-66
2022/03/25 01:43:59;;;;;;;;;62.75;47.25;;;;;11.62;41.33;102446.59;5074991;28;46435;-65
2022/03/25 01:46:26;;;;;;;;;61.75;47.25;;;;;11.56;41.39;102447.91;5064765;28;45480;-65
2022/03/25 01:48:52;;;;;;;;;60.50;46.00;;;;;11.53;41.62;102447.28;5091369;27;45434;-66
2022/03/25 01:51:20;;;;;;;;;57.00;45.50;;;;;11.56;41.57;102450.66;5064420;28;45578;-66
2022/03/25 01:53:49;;;;;;;;;55.00;43.50;;;;;11.56;41.36;102439.75;5066887;28;46357;-66
2022/03/25 01:56:22;;;;;;;;;60.00;46.50;;;;;11.42;42.57;102447.19;5079488;28;45461;-66
2022/03/25 01:58:48;;;;;;;;;52.00;42.00;;;;;11.37;41.65;102436.66;5076463;28;45380;-66
2022/03/25 02:01:16;;;;;;;;;67.75;48.25;;;;;11.42;42.39;102442.63;5077845;28;45540;-66
2022/03/25 02:03:42;;;;;;;;;61.75;47.50;;;;;11.37;42.09;102444.84;5067475;28;45372;-66
2022/03/25 02:06:07;;;;;;;;;56.00;44.75;;;;;11.39;42.41;102440.16;5069958;27;45398;-66
2022/03/25 02:08:33;;;;;;;;;62.00;45.75;;;;;11.35;42.23;102427.72;5066916;28;45319;-66
2022/03/25 02:10:59;;;;;;;;;56.00;40.50;;;;;11.34;42.29;102442.31;5072884;28;45238;-66
2022/03/25 02:13:25;;;;;;;;;59.50;45.50;;;;;11.29;41.87;102429.06;5080841;28;48307;-66
2022/03/25 02:15:52;;;;;;;;;58.75;41.75;;;;;11.28;42.75;102423.72;5073177;28;45251;-66
2022/03/25 02:18:18;;;;;;;;;56.00;42.50;;;;;11.30;41.89;102436.25;5068332;28;45552;-66
2022/03/25 02:20:45;;;;;;;;;58.25;43.75;;;;;11.34;41.88;102436.88;5074124;27;45320;-66
2022/03/25 02:23:12;;;;;;;;;62.00;47.00;;;;;11.28;42.34;102437.31;5065304;28;45660;-66
2022/03/25 02:25:38;;;;;;;;;57.50;44.25;;;;;11.28;42.47;102440.06;5074502;27;45368;-66
2022/03/25 02:28:07;;;;;;;;;59.00;45.75;;;;;11.29;42.56;102439.06;5071773;27;45398;-66
2022/03/25 02:30:34;;;;;;;;;58.50;46.50;;;;;11.25;42.57;102443.84;5067484;28;45540;-66
2022/03/25 02:33:04;;;;;;;;;66.75;48.00;;;;;11.21;43.81;102446.91;5070816;28;46741;-66
2022/03/25 02:35:41;;;;;;;;;60.25;47.25;;;;;10.99;42.03;102409.53;5066236;28;45304;-66
2022/03/25 02:38:08;;;;;;;;;60.50;44.50;;;;;11.21;42.15;102436.03;5071848;28;45325;-65
2022/03/25 02:40:34;;;;;;;;;57.00;44.00;;;;;11.23;41.59;102443.13;5066469;28;45214;-67
2022/03/25 02:42:59;;;;;;;;;64.00;45.25;;;;;11.22;41.83;102435.06;5069350;28;47306;-67
2022/03/25 02:45:25;;;;;;;;;64.50;47.75;;;;;11.18;42.50;102434.41;5065781;28;45435;-66
2022/03/25 02:47:50;;;;;;;;;63.75;45.25;;;;;11.17;42.87;102443.56;5062908;28;45423;-66
2022/03/25 02:50:16;;;;;;;;;59.50;45.75;;;;;11.12;43.03;102442.13;5069476;28;45559;-66
2022/03/25 02:52:42;;;;;;;;;61.75;46.75;;;;;11.03;42.80;102440.09;5084208;28;45383;-67
2022/03/25 02:55:08;;;;;;;;;53.25;40.25;;;;;11.03;43.53;102442.81;5067117;28;45393;-66
2022/03/25 02:57:35;;;;;;;;;60.00;46.50;;;;;11.01;43.38;102433.91;5083160;28;45320;-66
2022/03/25 03:00:01;;;;;;;;;60.25;45.50;;;;;11.02;42.54;102441.09;5075042;28;45511;-67
2022/03/25 03:02:26;;;;;;;;;58.75;44.75;;;;;11.03;42.61;102440.09;5073359;28;46888;-66
2022/03/25 03:04:51;;;;;;;;;66.25;49.00;;;;;11.06;42.26;102446.19;5072896;28;45234;-66
2022/03/25 03:07:17;;;;;;;;;60.25;46.75;;;;;10.98;43.59;102448.56;5068122;28;45282;-67
2022/03/25 03:09:43;;;;;;;;;57.00;44.50;;;;;10.97;42.96;102454.97;5073087;28;45317;-67
2022/03/25 03:12:10;;;;;;;;;56.25;44.50;;;;;10.92;42.67;102455.31;5064198;28;47352;-66
2022/03/25 03:14:36;;;;;;;;;57.00;45.00;;;;;10.91;42.93;102456.31;5071571;28;45468;-67
2022/03/25 03:17:02;;;;;;;;;57.00;43.75;;;;;10.88;43.54;102456.50;5065127;28;45279;-66
2022/03/25 03:19:27;;;;;;;;;59.00;45.50;;;;;10.85;43.42;102445.88;5073724;28;45544;-67
2022/03/25 03:21:53;;;;;;;;;53.00;38.00;;;;;10.76;43.66;102432.91;5067935;28;46443;-67
2022/03/25 03:24:18;;;;;;;;;67.25;46.25;;;;;10.76;44.48;102443.78;5067963;28;45334;-64
2022/03/25 03:26:43;;;;;;;;;57.00;46.50;;;;;10.68;44.70;102453.47;5069106;28;45323;-67
2022/03/25 03:29:09;;;;;;;;;62.75;47.75;;;;;10.63;45.09;102445.63;5076170;27;45312;-67
2022/03/25 03:31:34;;;;;;;;;54.50;43.00;;;;;10.56;45.01;102443.47;5070102;28;45373;-65
2022/03/25 03:33:59;;;;;;;;;58.00;43.75;;;;;10.54;45.33;102447.16;5069781;28;45368;-65
2022/03/25 03:36:26;;;;;;;;;65.00;48.25;;;;;10.38;45.89;102432.00;5063522;28;45855;-66
2022/03/25 03:38:51;;;;;;;;;63.50;49.00;;;;;10.31;46.49;102441.56;5071349;28;45564;-65
2022/03/25 03:41:16;;;;;;;;;69.00;48.25;;;;;10.22;46.49;102443.09;5071988;28;46362;-65
2022/03/25 03:43:41;;;;;;;;;62.75;44.00;;;;;10.22;45.89;102440.38;5065410;28;45310;-65
2022/03/25 03:46:08;;;;;;;;;62.50;46.75;;;;;10.18;46.64;102443.38;5063050;28;45315;-66
2022/03/25 03:48:33;;;;;;;;;58.25;46.25;;;;;10.21;46.08;102437.75;5074977;28;45247;-66
2022/03/25 03:50:58;;;;;;;;;59.50;45.00;;;;;10.23;46.84;102430.38;5063093;28;45350;-66
2022/03/25 03:53:24;;;;;;;;;58.50;47.00;;;;;10.08;46.76;102432.25;5074659;28;45850;-65
2022/03/25 03:55:49;;;;;;;;;60.75;44.00;;;;;10.04;47.20;102431.56;5070173;28;46377;-65
2022/03/25 03:58:14;;;;;;;;;60.25;46.50;;;;;10.05;46.70;102437.88;5080427;28;45592;-65
2022/03/25 04:00:40;;;;;;;;;58.00;44.25;;;;;10.06;46.98;102437.78;5071388;28;46393;-65
2022/03/25 04:03:06;;;;;;;;;55.00;44.00;;;;;10.05;46.94;102437.88;5062620;28;45321;-65
2022/03/25 04:05:32;;;;;;;;;64.00;45.50;;;;;10.00;46.72;102438.22;5070077;28;45393;-65
2022/03/25 04:07:57;;;;;;;;;64.75;49.50;;;;;9.90;48.29;102431.66;5063159;28;45425;-65
2022/03/25 04:10:23;;;;;;;;;61.75;45.25;;;;;9.82;47.75;102436.72;5073868;28;45436;-65
2022/03/25 04:12:48;;;;;;;;;63.50;46.25;;;;;9.91;47.33;102437.94;5062751;28;45231;-65
2022/03/25 04:15:15;;;;;;;;;60.25;44.25;;;;;9.93;46.97;102442.31;5073736;28;45437;-66
2022/03/25 04:17:42;;;;;;;;;58.25;46.75;;;;;9.98;47.82;102450.13;5065678;28;45235;-66
2022/03/25 04:20:09;;;;;;;;;59.25;44.00;;;;;9.95;47.56;102443.06;5067078;28;48063;-66
2022/03/25 04:22:35;;;;;;;;;61.00;46.75;;;;;9.90;47.71;102445.22;5074885;28;45417;-65
2022/03/25 04:25:00;;;;;;;;;57.75;46.25;;;;;9.86;47.76;102443.69;5072600;28;45451;-65
2022/03/25 04:27:26;;;;;;;;;64.75;45.00;;;;;9.81;47.84;102445.81;5062345;27;45509;-65
2022/03/25 04:29:52;;;;;;;;;63.25;48.75;;;;;9.82;47.67;102453.00;5079382;27;46386;-65
2022/03/25 04:32:17;;;;;;;;;64.50;46.00;;;;;9.76;47.77;102437.13;5062863;28;45377;-66
2022/03/25 04:34:43;;;;;;;;;62.75;46.50;;;;;9.82;48.11;102447.56;5069107;28;45340;-66
2022/03/25 04:37:09;;;;;;;;;55.75;44.25;;;;;9.80;48.71;102441.38;5062844;28;45364;-65
2022/03/25 04:39:35;;;;;;;;;67.25;47.50;;;;;9.80;48.45;102454.94;5066043;27;47278;-66
2022/03/25 04:42:00;;;;;;;;;57.00;45.75;;;;;9.82;47.87;102452.13;5073896;28;46411;-65
2022/03/25 04:44:25;;;;;;;;;66.50;48.00;;;;;9.83;47.70;102456.59;5068979;28;45556;-65
2022/03/25 04:46:53;;;;;;;;;63.50;47.75;;;;;9.80;47.61;102449.50;5064054;27;45842;-66
2022/03/25 04:49:18;;;;;;;;;66.00;49.25;;;;;9.69;48.28;102433.06;5074865;28;47106;-66
2022/03/25 04:51:43;;;;;;;;;59.00;46.00;;;;;9.82;48.40;102458.44;5068793;28;45307;-66
2022/03/25 04:54:09;;;;;;;;;65.00;49.75;;;;;9.80;48.35;102465.78;5067585;28;45578;-66
2022/03/25 04:56:36;;;;;;;;;60.50;46.50;;;;;9.81;47.72;102463.94;5074632;28;45317;-66
2022/03/25 04:59:02;;;;;;;;;58.00;46.50;;;;;9.85;48.54;102468.22;5066568;28;45596;-66
2022/03/25 05:01:27;;;;;;;;;51.50;38.00;;;;;9.87;48.39;102477.13;5072119;28;45497;-66
2022/03/25 05:03:53;;;;;;;;;64.00;48.75;;;;;9.87;48.61;102464.41;5070405;28;45527;-66
2022/03/25 05:06:18;;;;;;;;;65.00;48.50;;;;;9.83;48.41;102460.19;5069595;28;45373;-66
2022/03/25 05:08:43;;;;;;;;;61.00;48.25;;;;;9.90;48.54;102469.66;5067686;28;45327;-66
2022/03/25 05:11:09;;;;;;;;;64.25;48.00;;;;;9.87;48.19;102466.25;5072420;28;45451;-66
2022/03/25 05:13:35;;;;;;;;;60.75;46.75;;;;;9.88;48.11;102470.72;5067834;28;45441;-66
2022/03/25 05:16:00;;;;;;;;;61.00;48.25;;;;;9.90;48.54;102480.50;5074360;28;45361;-66
2022/03/25 05:18:26;;;;;;;;;58.75;44.00;;;;;9.91;47.95;102476.81;5072508;28;45491;-66
2022/03/25 05:20:51;;;;;;;;;65.00;51.00;;;;;9.81;49.21;102467.53;5074216;28;45347;-66
2022/03/25 05:23:17;;;;;;;;;65.25;48.75;;;;;9.75;48.93;102474.25;5066809;28;45152;-66
2022/03/25 05:25:42;;;;;;;;;59.50;44.25;;;;;9.64;49.28;102475.94;5075439;28;45341;-66
2022/03/25 05:28:07;;;;;;;;;59.50;44.75;;;;;9.58;49.13;102474.47;5072206;27;47277;-66
2022/03/25 05:30:34;;;;;;;;;67.00;49.25;;;;;9.56;49.92;102483.72;5065384;28;45368;-65
2022/03/25 05:32:59;;;;;;;;;60.25;46.25;;;;;9.57;49.45;102480.03;5069062;28;45437;-66
2022/03/25 05:35:26;;;;;;;;;69.50;49.25;;;;;9.63;49.33;102479.63;5065559;28;45960;-66
2022/03/25 05:37:52;;;;;;;;;62.75;47.00;;;;;9.59;49.37;102480.78;5062752;28;45784;-66
2022/03/25 05:40:20;;;;;;;;;59.75;47.50;;;;;9.56;49.51;102476.44;5064656;28;45383;-66
2022/03/25 05:42:46;;;;;;;;;67.00;46.75;;;;;9.62;48.88;102477.88;5070739;28;45425;-66
2022/03/25 05:45:11;;;;;;;;;55.50;46.25;;;;;9.65;49.30;102480.38;5069229;27;45533;-65
2022/03/25 05:47:38;;;;;;;;;65.75;50.00;;;;;9.67;49.24;102489.28;5072089;28;45304;-66
2022/03/25 05:50:05;;;;;;;;;58.00;45.50;;;;;9.68;48.73;102488.31;5069378;28;47353;-66
2022/03/25 05:52:31;;;;;;;;;65.00;49.00;;;;;9.70;48.99;102489.09;5083477;28;45503;-66
2022/03/25 05:54:57;;;;;;;;;62.75;50.25;;;;;9.66;48.75;102487.53;5068747;27;45716;-66
2022/03/25 05:57:22;;;;;;;;;62.75;46.25;;;;;9.70;48.48;102487.25;5084308;28;45330;-66
2022/03/25 05:59:48;;;;;;;;;64.50;49.50;;;;;9.74;48.83;102490.63;5076712;28;45279;-66
2022/03/25 06:02:14;;;;;;;;;61.50;47.00;;;;;9.79;48.65;102491.19;5069371;27;45404;-66
2022/03/25 06:04:40;;;;;;;;;61.50;49.25;;;;;9.85;48.18;102490.81;5072307;28;45603;-66
2022/03/25 06:07:06;;;;;;;;;59.50;41.00;;;;;9.91;48.27;102489.53;5064249;28;45577;-66
2022/03/25 06:09:31;;;;;;;;;63.75;47.00;;;;;10.02;47.85;102498.69;5070818;28;45422;-66
2022/03/25 06:11:57;;;;;;;;;66.50;50.00;;;;;9.99;48.40;102498.03;5076259;27;45410;-68
2022/03/25 06:14:22;;;;;;;;;64.25;48.50;;;;;10.07;47.87;102507.44;5078180;28;45636;-66
2022/03/25 06:16:48;;;;;;;;;63.25;47.50;;;;;10.09;48.05;102500.03;5069125;28;45353;-66
2022/03/25 06:19:13;;;;;;;;;60.50;46.25;;;;;10.20;47.29;102507.50;5070512;28;45290;-66
2022/03/25 06:21:39;;;;;;;;;63.75;48.50;;;;;10.18;47.55;102494.97;5070377;27;45249;-67
2022/03/25 06:24:05;;;;;;;;;71.75;48.50;;;;;10.31;47.72;102515.78;5067424;28;45467;-66
2022/03/25 06:26:31;;;;;;;;;66.50;50.00;;;;;10.79;46.85;102511.56;5070923;28;45622;-66
2022/03/25 06:28:56;;;;;;;;;63.00;47.00;;;;;11.39;45.11;102523.66;5074719;27;45380;-67
2022/03/25 06:31:22;;;;;;;;;69.75;49.50;;;;;11.24;45.27;102522.91;5063450;28;45465;-67
2022/03/25 06:33:48;;;;;;;;;64.75;49.25;;;;;11.05;45.73;102525.16;5076405;28;45374;-66
2022/03/25 06:36:13;;;;;;;;;66.50;51.00;;;;;10.85;45.92;102513.84;5065060;28;45396;-67
2022/03/25 06:38:42;;;;;;;;;62.25;49.25;;;;;10.88;45.96;102521.75;5074322;28;45400;-66
2022/03/25 06:41:08;;;;;;;;;64.00;50.50;;;;;10.93;46.62;102516.91;5066014;28;45441;-66
2022/03/25 06:43:34;;;;;;;;;66.25;49.75;;;;;10.95;47.13;102521.38;5075942;28;45267;-66
2022/03/25 06:46:00;;;;;;;;;64.25;48.25;;;;;11.05;46.69;102531.47;5063212;28;45448;-67
2022/03/25 06:48:26;;;;;;;;;66.50;49.00;;;;;11.16;46.29;102525.28;5075870;27;45707;-67
2022/03/25 06:50:52;;;;;;;;;63.00;44.75;;;;;11.77;45.08;102529.91;5070187;28;45308;-68
2022/03/25 06:53:18;;;;;;;;;61.50;46.25;;;;;12.17;43.51;102530.53;5080371;28;45603;-67
2022/03/25 06:55:44;;;;;;;;;68.75;50.25;;;;;12.06;43.40;102519.56;5075954;28;45395;-65
2022/03/25 06:58:10;;;;;;;;;67.00;47.50;;;;;11.98;43.81;102525.59;5081257;27;45576;-67
2022/03/25 07:00:36;;;;;;;;;66.25;49.00;;;;;11.95;43.80;102541.31;5071895;28;45466;-67
2022/03/25 07:03:01;;;;;;;;;63.75;47.25;;;;;11.96;43.51;102538.47;5061910;28;45369;-65
2022/03/25 07:05:30;;;;;;;;;61.50;48.25;;;;;11.97;43.27;102534.78;5069270;28;46911;-66
2022/03/25 07:07:56;;;;;;;;;60.75;49.75;;;;;11.98;43.56;102535.66;5076180;28;45949;-66
2022/03/25 07:10:23;;;;;;;;;64.50;50.00;;;;;12.02;43.70;102521.66;5068636;27;45422;-66
2022/03/25 07:12:51;;;;;;;;;65.75;49.50;;;;;12.20;43.74;102529.47;5062518;28;45338;-66
2022/03/25 07:15:17;;;;;;;;;67.00;50.25;;;;;12.41;43.23;102538.72;5066547;28;47722;-67
2022/03/25 07:17:43;;;;;;;;;64.00;48.75;;;;;12.48;43.09;102535.41;5080266;27;46499;-65
2022/03/25 07:20:13;;;;;;;;;56.50;45.75;;;;;12.64;42.60;102536.97;5064081;28;45328;-66
2022/03/25 07:22:43;;;;;;;;;65.75;48.00;;;;;12.70;42.50;102542.81;5062469;28;45354;-66
2022/03/25 07:25:09;;;;;;;;;74.25;50.50;;;;;12.67;42.53;102544.91;5071678;28;47212;-67
2022/03/25 07:27:35;;;;;;;;;67.75;50.25;;;;;12.77;42.34;102543.22;5064974;27;45553;-67
2022/03/25 07:30:00;;;;;;;;;65.75;47.50;;;;;12.92;41.87;102544.75;5076518;27;45448;-67
2022/03/25 07:32:26;;;;;;;;;69.50;53.00;;;;;13.05;40.96;102540.06;5062357;27;45501;-68
2022/03/25 07:34:51;;;;;;;;;65.25;48.75;;;;;13.22;41.31;102545.06;5064125;28;46064;-66
2022/03/25 07:37:17;;;;;;;;;66.00;48.50;;;;;13.39;40.95;102548.31;5076341;28;45768;-67
2022/03/25 07:39:44;;;;;;;;;61.75;48.25;;;;;13.41;40.43;102549.06;5071656;28;45308;-68
2022/03/25 07:42:09;;;;;;;;;67.50;51.25;;;;;13.42;40.42;102553.53;5077647;28;45483;-67
2022/03/25 07:44:36;;;;;;;;;65.00;48.25;;;;;13.49;40.69;102560.25;5069332;28;46866;-67
2022/03/25 07:47:01;;;;;;;;;67.25;49.75;;;;;13.54;40.20;102552.53;5078606;28;45293;-67
2022/03/25 07:49:27;;;;;;;;;65.50;51.50;;;;;13.60;40.16;102560.22;5073917;28;45359;-67
2022/03/25 07:51:53;;;;;;;;;68.00;55.25;;;;;13.60;39.96;102563.84;5082900;27;45282;-68
2022/03/25 07:54:18;;;;;;;;;67.00;51.50;;;;;13.72;39.84;102562.00;5064758;28;47143;-68
2022/03/25 07:56:43;;;;;;;;;72.50;52.25;;;;;13.75;39.80;102556.25;5062049;28;45286;-67
2022/03/25 07:59:09;;;;;;;;;65.50;49.00;;;;;13.83;39.46;102559.25;5066832;28;45326;-68
2022/03/25 08:01:34;;;;;;;;;67.25;48.00;;;;;13.83;39.35;102559.25;5062062;28;45306;-67
2022/03/25 08:04:00;;;;;;;;;64.75;49.75;;;;;13.87;39.20;102559.88;5062111;28;47252;-67
2022/03/25 08:06:26;;;;;;;;;67.50;50.50;;;;;14.14;38.97;102575.84;5065365;28;45344;-67
2022/03/25 08:08:51;;;;;;;;;62.75;49.00;;;;;14.31;38.27;102554.31;5064402;28;45318;-67
2022/03/25 08:11:20;;;;;;;;;69.75;52.50;;;;;14.49;38.15;102564.72;5071409;28;45438;-67
2022/03/25 08:13:47;;;;;;;;;62.25;47.75;;;;;14.74;37.58;102570.72;5064571;28;46160;-67
2022/03/25 08:16:14;;;;;;;;;30.00;20.00;;;;;14.83;37.63;102576.41;5070678;28;45345;-68
2022/03/25 08:18:39;;;;;;;;;66.25;51.50;;;;;15.09;36.66;102567.66;5067479;28;44691;-67
2022/03/25 08:21:05;;;;;;;;;64.50;49.75;;;;;15.42;36.58;102579.38;5071861;28;45523;-67
2022/03/25 08:29:00;;;;;;;;;70.75;52.50;;;;;15.94;35.13;102570.16;5077832;27;45407;-67
2022/03/25 08:31:25;;;;;;;;;58.75;47.50;;;;;16.11;35.48;102563.13;5077568;28;45440;-68
2022/03/25 08:33:50;;;;;;;;;65.75;51.00;;;;;16.32;34.46;102574.88;5080912;28;46164;-68
2022/03/25 08:36:17;;;;;;;;;61.50;49.00;;;;;16.54;34.23;102569.13;5065801;28;45458;-66
2022/03/25 08:38:43;;;;;;;;;64.00;46.75;;;;;16.81;34.02;102565.69;5076236;28;45523;-66
2022/03/25 08:41:09;;;;;;;;;50.75;43.50;;;;;16.86;32.87;102563.41;5066001;28;45385;-67
2022/03/25 08:43:35;;;;;;;;;62.25;50.00;;;;;16.87;32.71;102569.75;5077216;28;45260;-66
2022/03/25 08:46:01;;;;;;;;;62.00;48.50;;;;;17.04;33.21;102556.16;5073197;28;45159;-67
2022/03/25 08:48:27;;;;;;;;;72.25;53.50;;;;;17.32;32.48;102550.72;5084033;27;45352;-67
2022/03/25 08:50:53;;;;;;;;;58.25;46.50;;;;;17.72;32.66;102567.00;5073101;28;45275;-67
2022/03/25 08:53:18;;;;;;;;;66.75;50.75;;;;;17.80;32.34;102572.59;5083181;28;46154;-67
2022/03/25 08:55:43;;;;;;;;;63.50;47.75;;;;;17.86;31.96;102563.75;5076311;28;45308;-66
2022/03/25 08:58:09;;;;;;;;;64.25;48.50;;;;;17.95;31.77;102560.09;5071543;27;45385;-67
2022/03/25 09:00:34;;;;;;;;;67.75;51.00;;;;;18.21;31.51;102563.84;5070235;28;45330;-67
2022/03/25 09:03:00;;;;;;;;;67.25;51.00;;;;;18.34;31.02;102557.94;5064025;28;46922;-67
2022/03/25 09:05:25;;;;;;;;;61.50;48.00;;;;;18.43;30.32;102559.78;5075102;27;45354;-67
2022/03/25 09:07:50;;;;;;;;;60.25;43.75;;;;;18.61;29.42;102565.34;5065480;28;45499;-67
2022/03/25 09:10:16;;;;;;;;;67.00;51.50;;;;;18.82;29.36;102567.78;5076670;28;45239;-68
2022/03/25 09:12:44;;;;;;;;;65.00;49.50;;;;;19.00;29.78;102565.84;5070378;28;47823;-68
2022/03/25 09:15:12;;;;;;;;;69.50;51.75;;;;;18.88;29.64;102556.97;5076139;28;45286;-68
2022/03/25 09:17:39;;;;;;;;;67.25;52.00;;;;;18.85;29.27;102561.97;5067761;28;45242;-67
2022/03/25 09:20:05;;;;;;;;;67.50;52.00;;;;;18.90;29.57;102559.59;5076996;28;45237;-68
2022/03/25 09:22:32;;;;;;;;;65.75;50.25;;;;;19.33;28.60;102566.97;5070292;28;48051;-68
2022/03/25 09:24:58;;;;;;;;;63.25;46.75;;;;;19.69;28.57;102562.22;5078121;28;45333;-68
2022/03/25 09:27:23;;;;;;;;;67.25;51.50;;;;;19.96;28.94;102550.97;5066070;27;45254;-68
2022/03/25 09:29:49;;;;;;;;;63.25;49.50;;;;;20.28;27.73;102564.03;5087266;27;45400;-67
2022/03/25 09:32:14;;;;;;;;;64.75;49.50;;;;;20.37;27.52;102559.44;5067165;28;45496;-67
2022/03/25 09:37:24;;;;;;;;;71.25;52.75;;;;;20.72;26.28;102552.78;5068456;28;45432;-66
2022/03/25 09:39:50;;;;;;;;;69.00;51.00;;;;;20.94;27.56;102558.47;5072473;28;45509;-67
2022/03/25 09:42:16;;;;;;;;;64.50;51.75;;;;;21.24;26.15;102551.41;5068464;28;46239;-67
2022/03/25 09:44:42;;;;;;;;;66.00;51.00;;;;;21.48;26.36;102553.25;5072671;28;45213;-67
2022/03/25 09:47:10;;;;;;;;;71.75;54.25;;;;;21.28;25.84;102554.69;5064354;28;45320;-67
2022/03/25 09:49:37;;;;;;;;;68.00;50.75;;;;;21.19;26.06;102558.47;5067563;28;45612;-67
2022/03/25 09:52:05;;;;;;;;;66.50;52.25;;;;;21.13;25.50;102554.50;5081040;28;45496;-67
2022/03/25 09:54:31;;;;;;;;;62.50;49.00;;;;;21.71;26.72;102554.22;5075849;28;45519;-67
2022/03/25 09:56:57;;;;;;;;;62.50;46.75;;;;;21.91;24.92;102549.16;5069067;28;45251;-68
2022/03/25 09:59:22;;;;;;;;;66.75;50.50;;;;;21.83;24.88;102540.03;5069662;28;45263;-67
2022/03/25 10:01:48;;;;;;;;;64.75;48.75;;;;;21.72;25.30;102544.91;5064216;28;45339;-67
2022/03/25 10:04:44;;;;;;;;;62.75;47.75;;;;;22.03;25.23;102541.34;5067609;28;45378;-67
2022/03/25 10:07:16;;;;;;;;;61.50;48.25;;;;;22.45;25.17;102533.50;5078598;28;45358;-67
2022/03/25 10:09:42;;;;;;;;;63.25;49.00;;;;;22.53;23.82;102538.09;5078441;27;45242;-67
2022/03/25 10:12:25;;;;;;;;;65.50;51.75;;;;;22.43;23.81;102541.09;5067635;28;45515;-67
2022/03/25 10:15:09;;;;;;;;;61.00;48.25;;;;;22.24;23.27;102524.09;5073260;28;45234;-67
2022/03/25 10:17:56;;;;;;;;;67.25;52.00;;;;;21.81;24.45;102544.88;5071320;28;45335;-67
2022/03/25 10:20:30;;;;;;;;;53.75;42.50;;;;;22.09;24.73;102529.56;5066776;28;45472;-67
2022/03/25 10:23:02;;;;;;;;;64.75;50.25;;;;;21.84;24.38;102531.56;5085588;27;48288;-67
2022/03/25 10:25:55;;;;;;;;;66.50;53.00;;;;;21.59;24.40;102538.19;5085278;27;45408;-67
2022/03/25 10:28:27;;;;;;;;;67.75;51.75;;;;;21.79;24.61;102531.22;5075384;27;45512;-67
2022/03/25 10:31:06;;;;;;;;;70.50;51.75;;;;;22.44;24.93;102531.75;5076428;28;45465;-67
2022/03/25 10:33:47;;;;;;;;;69.00;51.75;;;;;22.51;24.26;102526.34;5074225;28;46300;-67
2022/03/25 10:36:14;;;;;;;;;62.25;46.25;;;;;22.11;23.96;102528.34;5072369;28;45262;-67
2022/03/25 10:38:57;;;;;;;;;68.50;52.50;;;;;22.56;24.55;102534.13;5079536;28;45441;-67
2022/03/25 10:41:25;;;;;;;;;66.00;51.75;;;;;22.32;23.90;102532.38;5078615;28;45262;-67
2022/03/25 10:44:04;;;;;;;;;64.75;52.00;;;;;21.73;24.42;102526.41;5066268;27;45453;-69
2022/03/25 10:46:30;;;;;;;;;66.25;50.25;;;;;22.21;23.88;102532.78;5071060;27;45330;-68
2022/03/25 10:48:55;;;;;;;;;66.25;50.50;;;;;22.36;23.96;102508.78;5074674;28;45328;-66
2022/03/25 10:51:20;;;;;;;;;66.75;49.75;;;;;22.81;23.09;102535.69;5072904;28;45588;-67
2022/03/25 10:53:47;;;;;;;;;65.00;51.00;;;;;23.13;22.58;102526.22;5065918;28;46632;-66
2022/03/25 10:56:13;;;;;;;;;62.50;48.25;;;;;23.46;22.95;102529.50;5065816;27;45374;-66
2022/03/25 10:58:49;;;;;;;;;66.50;51.25;;;;;23.45;22.46;102527.81;5064929;28;45177;-66
2022/03/25 11:01:15;;;;;;;;;58.75;46.75;;;;;23.54;22.62;102518.34;5065682;28;46091;-67
2022/03/25 11:03:41;;;;;;;;;72.50;51.75;;;;;23.70;22.17;102520.09;5065953;28;46526;-67
2022/03/25 11:06:08;;;;;;;;;66.75;51.75;;;;;23.68;22.64;102528.59;5067707;28;45354;-67
2022/03/25 11:08:35;;;;;;;;;66.25;49.25;;;;;23.82;22.21;102524.09;5079642;28;45412;-67
2022/03/25 11:11:01;;;;;;;;;62.50;47.25;;;;;23.74;22.54;102521.44;5071545;28;45571;-67
2022/03/25 11:13:27;;;;;;;;;71.00;52.00;;;;;23.49;22.12;102523.63;5065084;28;45930;-67
2022/03/25 11:15:55;;;;;;;;;67.50;50.25;;;;;22.41;22.46;102512.75;5071345;28;45403;-66
2022/03/25 11:18:21;;;;;;;;;68.25;52.50;;;;;21.83;23.63;102517.91;5067294;28;45314;-65